AMX212 MMUN-MMAA
Flight info
| Callsign | AMX212 |
|---|---|
| Flight time | 2h 9m |
| Altitude | 34000 |
| Route | UDGUV2A UDGUV UJ84 CPE UJ24 NUDIK UJ16 OAX UJ69 PXM J1 ANVAN ANVAN1B |
| Aircraft | B738/M-SDE2E3FGHIRWXY/LB1 |
Departure
| Time | 2026-05-03 22:39 |
|---|---|
| Airport | Cancún International Airport (MMUN) |
Arrival
| Time | 2026-05-04 00:49 |
|---|---|
| Airport | General Juan N. Álvarez International Airport (MMAA) |
| Time | Latitude | Longitude | Altitude | Speed | Heading |
|---|---|---|---|---|---|
| 2026-05-03 22:00 | 21.03902 | -86.87578 | 29 ft | 0 kts | 353° |
| 2026-05-03 22:28 | 21.03896 | -86.87578 | 29 ft | 3 kts | 353° |
| 2026-05-03 22:29 | 21.03878 | -86.87575 | 27 ft | 3 kts | 353° |
| 2026-05-03 22:29 | 21.03859 | -86.87573 | 29 ft | 3 kts | 353° |
| 2026-05-03 22:29 | 21.03841 | -86.87571 | 29 ft | 3 kts | 344° |
| 2026-05-03 22:29 | 21.03824 | -86.87562 | 29 ft | 3 kts | 312° |
| 2026-05-03 22:30 | 21.03814 | -86.87545 | 29 ft | 3 kts | 289° |
| 2026-05-03 22:30 | 21.03814 | -86.87544 | 29 ft | 0 kts | 289° |
| 2026-05-03 22:33 | 21.03814 | -86.87545 | 29 ft | 2 kts | 289° |
| 2026-05-03 22:33 | 21.03820 | -86.87577 | 29 ft | 6 kts | 267° |
| 2026-05-03 22:33 | 21.03816 | -86.87638 | 30 ft | 10 kts | 291° |
| 2026-05-03 22:34 | 21.03864 | -86.87720 | 30 ft | 16 kts | 303° |
| 2026-05-03 22:34 | 21.03929 | -86.87824 | 29 ft | 17 kts | 303° |
| 2026-05-03 22:34 | 21.03993 | -86.87926 | 29 ft | 16 kts | 303° |
| 2026-05-03 22:34 | 21.04055 | -86.88025 | 29 ft | 16 kts | 303° |
| 2026-05-03 22:35 | 21.04115 | -86.88119 | 29 ft | 15 kts | 304° |
| 2026-05-03 22:35 | 21.04172 | -86.88209 | 29 ft | 14 kts | 304° |
| 2026-05-03 22:35 | 21.04226 | -86.88297 | 30 ft | 14 kts | 303° |
| 2026-05-03 22:35 | 21.04277 | -86.88379 | 30 ft | 13 kts | 303° |
| 2026-05-03 22:36 | 21.04327 | -86.88458 | 30 ft | 13 kts | 304° |
| 2026-05-03 22:36 | 21.04385 | -86.88548 | 30 ft | 17 kts | 304° |
| 2026-05-03 22:36 | 21.04465 | -86.88677 | 30 ft | 24 kts | 304° |
| 2026-05-03 22:36 | 21.04558 | -86.88824 | 29 ft | 21 kts | 304° |
| 2026-05-03 22:37 | 21.04632 | -86.88943 | 29 ft | 18 kts | 303° |
| 2026-05-03 22:37 | 21.04613 | -86.89022 | 30 ft | 5 kts | 214° |
| 2026-05-03 22:37 | 21.04609 | -86.89025 | 30 ft | 0 kts | 214° |
| 2026-05-03 22:38 | 21.04592 | -86.89037 | 30 ft | 6 kts | 215° |
| 2026-05-03 22:38 | 21.04548 | -86.89070 | 30 ft | 9 kts | 214° |
| 2026-05-03 22:38 | 21.04508 | -86.89058 | 31 ft | 7 kts | 127° |
| 2026-05-03 22:39 | 21.04475 | -86.89004 | 32 ft | 15 kts | 123° |
| 2026-05-03 22:39 | 21.04288 | -86.88702 | 34 ft | 97 kts | 123° |
| 2026-05-03 22:39 | 21.03742 | -86.87835 | 96 ft | 177 kts | 124° |
| 2026-05-03 22:39 | 21.03021 | -86.86692 | 1157 ft | 186 kts | 124° |
| 2026-05-03 22:40 | 21.02265 | -86.85501 | 2300 ft | 202 kts | 125° |
| 2026-05-03 22:40 | 21.01316 | -86.84273 | 3026 ft | 229 kts | 141° |
| 2026-05-03 22:40 | 20.99863 | -86.83522 | 3175 ft | 240 kts | 169° |
| 2026-05-03 22:40 | 20.98173 | -86.83472 | 3396 ft | 248 kts | 189° |
| 2026-05-03 22:41 | 20.96524 | -86.84069 | 3534 ft | 259 kts | 212° |
| 2026-05-03 22:41 | 20.95215 | -86.85467 | 3645 ft | 281 kts | 239° |
| 2026-05-03 22:41 | 20.94419 | -86.87432 | 3930 ft | 286 kts | 251° |
| 2026-05-03 22:41 | 20.93879 | -86.89451 | 4256 ft | 278 kts | 258° |
| 2026-05-03 22:42 | 20.93556 | -86.91448 | 4671 ft | 270 kts | 260° |
| 2026-05-03 22:42 | 20.93250 | -86.93392 | 5113 ft | 259 kts | 262° |
| 2026-05-03 22:42 | 20.92961 | -86.95263 | 5483 ft | 253 kts | 261° |
| 2026-05-03 22:42 | 20.92722 | -86.97111 | 5836 ft | 246 kts | 263° |
| 2026-05-03 22:43 | 20.92535 | -86.98884 | 6278 ft | 236 kts | 265° |
| 2026-05-03 22:43 | 20.92407 | -87.00635 | 6503 ft | 237 kts | 264° |
| 2026-05-03 22:43 | 20.92185 | -87.02398 | 6705 ft | 243 kts | 261° |
| 2026-05-03 22:43 | 20.91926 | -87.04204 | 6920 ft | 248 kts | 259° |
| 2026-05-03 22:44 | 20.91582 | -87.05998 | 7315 ft | 244 kts | 259° |
| 2026-05-03 22:44 | 20.91336 | -87.07771 | 7725 ft | 239 kts | 263° |
| 2026-05-03 22:44 | 20.91123 | -87.09545 | 7991 ft | 242 kts | 263° |
| 2026-05-03 22:44 | 20.90888 | -87.11323 | 8158 ft | 248 kts | 259° |
| 2026-05-03 22:45 | 20.90516 | -87.13142 | 8353 ft | 253 kts | 257° |
| 2026-05-03 22:45 | 20.90136 | -87.14990 | 8560 ft | 256 kts | 258° |
| 2026-05-03 22:45 | 20.89781 | -87.16864 | 8784 ft | 259 kts | 259° |
| 2026-05-03 22:45 | 20.89449 | -87.18768 | 9016 ft | 261 kts | 260° |
| 2026-05-03 22:46 | 20.89136 | -87.20681 | 9246 ft | 262 kts | 260° |
| 2026-05-03 22:46 | 20.88835 | -87.22610 | 9489 ft | 263 kts | 261° |
| 2026-05-03 22:46 | 20.88540 | -87.24546 | 9727 ft | 264 kts | 261° |
| 2026-05-03 22:46 | 20.88249 | -87.26489 | 9966 ft | 265 kts | 261° |
| 2026-05-03 22:47 | 20.87962 | -87.28436 | 10204 ft | 265 kts | 261° |
| 2026-05-03 22:47 | 20.87675 | -87.30389 | 10442 ft | 266 kts | 261° |
| 2026-05-03 22:47 | 20.87390 | -87.32339 | 10673 ft | 266 kts | 261° |
| 2026-05-03 22:47 | 20.87103 | -87.34295 | 10905 ft | 266 kts | 261° |
| 2026-05-03 22:48 | 20.86816 | -87.36252 | 11134 ft | 266 kts | 261° |
| 2026-05-03 22:48 | 20.86528 | -87.38211 | 11349 ft | 267 kts | 261° |
| 2026-05-03 22:48 | 20.86241 | -87.40168 | 11578 ft | 267 kts | 261° |
| 2026-05-03 22:48 | 20.85952 | -87.42129 | 11794 ft | 267 kts | 261° |
| 2026-05-03 22:49 | 20.85664 | -87.44087 | 12007 ft | 267 kts | 261° |
| 2026-05-03 22:49 | 20.85374 | -87.46050 | 12217 ft | 267 kts | 261° |
| 2026-05-03 22:49 | 20.85086 | -87.48010 | 12422 ft | 267 kts | 261° |
| 2026-05-03 22:49 | 20.84796 | -87.49971 | 12624 ft | 267 kts | 261° |
| 2026-05-03 22:50 | 20.84506 | -87.51933 | 12823 ft | 267 kts | 261° |
| 2026-05-03 22:50 | 20.84216 | -87.53897 | 13017 ft | 267 kts | 261° |
| 2026-05-03 22:50 | 20.83925 | -87.55860 | 13215 ft | 267 kts | 261° |
| 2026-05-03 22:50 | 20.83635 | -87.57820 | 13396 ft | 267 kts | 261° |
| 2026-05-03 22:51 | 20.83343 | -87.59784 | 13585 ft | 268 kts | 261° |
| 2026-05-03 22:51 | 20.83050 | -87.61752 | 13762 ft | 268 kts | 261° |
| 2026-05-03 22:51 | 20.82758 | -87.63715 | 13942 ft | 268 kts | 261° |
| 2026-05-03 22:51 | 20.82465 | -87.65681 | 14114 ft | 268 kts | 261° |
| 2026-05-03 22:52 | 20.82172 | -87.67647 | 14285 ft | 268 kts | 261° |
| 2026-05-03 22:52 | 20.81879 | -87.69615 | 14454 ft | 268 kts | 261° |
| 2026-05-03 22:52 | 20.81585 | -87.71581 | 14619 ft | 268 kts | 261° |
| 2026-05-03 22:52 | 20.81291 | -87.73549 | 14789 ft | 268 kts | 261° |
| 2026-05-03 22:53 | 20.80997 | -87.75519 | 14944 ft | 268 kts | 261° |
| 2026-05-03 22:53 | 20.80699 | -87.77489 | 15100 ft | 268 kts | 259° |
| 2026-05-03 22:53 | 20.80295 | -87.79433 | 15254 ft | 269 kts | 256° |
| 2026-05-03 22:53 | 20.79823 | -87.81371 | 15364 ft | 273 kts | 255° |
| 2026-05-03 22:54 | 20.79314 | -87.83403 | 15516 ft | 294 kts | 255° |
| 2026-05-03 22:54 | 20.78764 | -87.85606 | 15707 ft | 319 kts | 255° |
| 2026-05-03 22:54 | 20.78186 | -87.87941 | 15878 ft | 342 kts | 255° |
| 2026-05-03 22:54 | 20.77561 | -87.90484 | 16045 ft | 364 kts | 255° |
| 2026-05-03 22:55 | 20.76906 | -87.93163 | 16368 ft | 379 kts | 255° |
| 2026-05-03 22:55 | 20.76228 | -87.95946 | 16972 ft | 384 kts | 255° |
| 2026-05-03 22:55 | 20.75554 | -87.98715 | 17676 ft | 387 kts | 255° |
| 2026-05-03 22:55 | 20.74884 | -88.01472 | 18339 ft | 390 kts | 255° |
| 2026-05-03 22:56 | 20.74199 | -88.04285 | 18965 ft | 394 kts | 255° |
| 2026-05-03 22:56 | 20.73506 | -88.07132 | 19566 ft | 398 kts | 255° |
| 2026-05-03 22:56 | 20.72812 | -88.09980 | 20154 ft | 401 kts | 255° |
| 2026-05-03 22:56 | 20.72107 | -88.12874 | 20732 ft | 405 kts | 255° |
| 2026-05-03 22:57 | 20.71395 | -88.15790 | 21292 ft | 408 kts | 255° |
| 2026-05-03 22:57 | 20.70675 | -88.18736 | 21829 ft | 411 kts | 255° |
| 2026-05-03 22:57 | 20.69951 | -88.21700 | 22349 ft | 415 kts | 255° |
| 2026-05-03 22:57 | 20.69220 | -88.24696 | 22856 ft | 418 kts | 255° |
| 2026-05-03 22:58 | 20.68485 | -88.27704 | 23344 ft | 421 kts | 255° |
| 2026-05-03 22:58 | 20.67742 | -88.30745 | 23824 ft | 424 kts | 255° |
| 2026-05-03 22:58 | 20.66995 | -88.33799 | 24276 ft | 427 kts | 255° |
| 2026-05-03 22:58 | 20.66241 | -88.36879 | 24725 ft | 430 kts | 255° |
| 2026-05-03 22:59 | 20.65482 | -88.39978 | 25155 ft | 433 kts | 255° |
| 2026-05-03 22:59 | 20.64717 | -88.43099 | 25573 ft | 436 kts | 255° |
| 2026-05-03 22:59 | 20.63851 | -88.46207 | 25969 ft | 439 kts | 250° |
| 2026-05-03 22:59 | 20.62734 | -88.49256 | 26362 ft | 441 kts | 248° |
| 2026-05-03 23:00 | 20.61543 | -88.52283 | 26740 ft | 444 kts | 247° |
| 2026-05-03 23:00 | 20.60736 | -88.54291 | 26983 ft | 446 kts | 247° |
| 2026-05-03 23:00 | 20.59509 | -88.57339 | 27342 ft | 448 kts | 247° |
| 2026-05-03 23:00 | 20.58283 | -88.60406 | 27692 ft | 451 kts | 247° |
| 2026-05-03 23:01 | 20.56665 | -88.64499 | 28129 ft | 454 kts | 247° |
| 2026-05-03 23:01 | 20.55444 | -88.67615 | 28462 ft | 456 kts | 247° |
| 2026-05-03 23:01 | 20.54224 | -88.70741 | 28768 ft | 458 kts | 248° |
| 2026-05-03 23:01 | 20.52998 | -88.73891 | 29081 ft | 460 kts | 248° |
| 2026-05-03 23:02 | 20.52168 | -88.76025 | 29281 ft | 462 kts | 248° |
| 2026-05-03 23:02 | 20.50935 | -88.79193 | 29564 ft | 464 kts | 248° |
| 2026-05-03 23:02 | 20.49694 | -88.82381 | 29850 ft | 466 kts | 248° |
| 2026-05-03 23:02 | 20.48448 | -88.85576 | 30152 ft | 467 kts | 248° |
| 2026-05-03 23:03 | 20.47216 | -88.88734 | 30543 ft | 466 kts | 248° |
| 2026-05-03 23:03 | 20.45972 | -88.91920 | 30964 ft | 464 kts | 247° |
| 2026-05-03 23:03 | 20.44734 | -88.95088 | 31346 ft | 463 kts | 247° |
| 2026-05-03 23:03 | 20.43497 | -88.98251 | 31668 ft | 462 kts | 247° |
| 2026-05-03 23:04 | 20.42276 | -89.01372 | 32001 ft | 462 kts | 247° |
| 2026-05-03 23:04 | 20.41038 | -89.04533 | 32347 ft | 461 kts | 247° |
| 2026-05-03 23:04 | 20.39805 | -89.07680 | 32693 ft | 460 kts | 247° |
| 2026-05-03 23:04 | 20.38572 | -89.10826 | 33031 ft | 459 kts | 247° |
| 2026-05-03 23:05 | 20.37338 | -89.13971 | 33346 ft | 459 kts | 247° |
| 2026-05-03 23:05 | 20.36109 | -89.17104 | 33653 ft | 459 kts | 247° |
| 2026-05-03 23:05 | 20.34878 | -89.20239 | 33975 ft | 458 kts | 247° |
| 2026-05-03 23:05 | 20.33651 | -89.23361 | 34277 ft | 457 kts | 247° |
| 2026-05-03 23:06 | 20.32424 | -89.26481 | 34564 ft | 457 kts | 247° |
| 2026-05-03 23:06 | 20.31195 | -89.29604 | 34855 ft | 456 kts | 247° |
| 2026-05-03 23:06 | 20.29970 | -89.32717 | 35143 ft | 455 kts | 247° |
| 2026-05-03 23:06 | 20.28747 | -89.35822 | 35427 ft | 455 kts | 247° |
| 2026-05-03 23:07 | 20.27524 | -89.38924 | 35701 ft | 454 kts | 247° |
| 2026-05-03 23:07 | 20.26303 | -89.42020 | 35966 ft | 453 kts | 247° |
| 2026-05-03 23:07 | 20.25080 | -89.45118 | 36229 ft | 453 kts | 247° |
| 2026-05-03 23:07 | 20.23860 | -89.48209 | 36474 ft | 453 kts | 247° |
| 2026-05-03 23:08 | 20.22642 | -89.51292 | 36702 ft | 453 kts | 247° |
| 2026-05-03 23:08 | 20.21418 | -89.54387 | 36906 ft | 453 kts | 247° |
| 2026-05-03 23:08 | 20.20197 | -89.57473 | 37124 ft | 453 kts | 247° |
| 2026-05-03 23:08 | 20.18974 | -89.60563 | 37370 ft | 452 kts | 247° |
| 2026-05-03 23:09 | 20.17755 | -89.63641 | 37591 ft | 452 kts | 247° |
| 2026-05-03 23:09 | 20.16534 | -89.66722 | 37790 ft | 452 kts | 247° |
| 2026-05-03 23:09 | 20.15311 | -89.69807 | 37953 ft | 452 kts | 247° |
| 2026-05-03 23:10 | 20.12851 | -89.76004 | 37992 ft | 455 kts | 247° |
| 2026-05-03 23:10 | 20.10398 | -89.82179 | 37994 ft | 451 kts | 247° |
| 2026-05-03 23:11 | 20.07954 | -89.88323 | 38005 ft | 451 kts | 247° |
| 2026-05-03 23:11 | 20.05502 | -89.94478 | 38010 ft | 453 kts | 247° |
| 2026-05-03 23:12 | 20.03035 | -90.00664 | 38007 ft | 455 kts | 247° |
| 2026-05-03 23:12 | 20.00559 | -90.06866 | 38003 ft | 456 kts | 247° |
| 2026-05-03 23:13 | 19.98092 | -90.13039 | 38000 ft | 457 kts | 247° |
| 2026-05-03 23:13 | 19.95606 | -90.19252 | 38000 ft | 456 kts | 247° |
| 2026-05-03 23:14 | 19.93124 | -90.25448 | 37999 ft | 455 kts | 247° |
| 2026-05-03 23:14 | 19.90648 | -90.31620 | 37999 ft | 453 kts | 247° |
| 2026-05-03 23:15 | 19.88176 | -90.37776 | 38000 ft | 452 kts | 247° |
| 2026-05-03 23:15 | 19.85715 | -90.43902 | 38000 ft | 451 kts | 247° |
| 2026-05-03 23:16 | 19.83364 | -90.50059 | 37993 ft | 450 kts | 253° |
| 2026-05-03 23:16 | 19.82329 | -90.56583 | 38007 ft | 448 kts | 264° |
| 2026-05-03 23:17 | 19.81712 | -90.63165 | 38000 ft | 448 kts | 264° |
| 2026-05-03 23:17 | 19.81061 | -90.69752 | 38001 ft | 448 kts | 264° |
| 2026-05-03 23:18 | 19.80371 | -90.76337 | 38002 ft | 449 kts | 263° |
| 2026-05-03 23:18 | 19.79667 | -90.82933 | 38002 ft | 450 kts | 263° |
| 2026-05-03 23:19 | 19.78962 | -90.89538 | 38002 ft | 451 kts | 263° |
| 2026-05-03 23:19 | 19.78260 | -90.96106 | 38002 ft | 451 kts | 263° |
| 2026-05-03 23:20 | 19.77549 | -91.02732 | 38002 ft | 452 kts | 263° |
| 2026-05-03 23:20 | 19.76832 | -91.09360 | 38001 ft | 452 kts | 263° |
| 2026-05-03 23:21 | 19.76111 | -91.16003 | 38001 ft | 453 kts | 263° |
| 2026-05-03 23:21 | 19.75388 | -91.22647 | 38001 ft | 453 kts | 263° |
| 2026-05-03 23:22 | 19.74300 | -91.32604 | 38001 ft | 453 kts | 263° |
| 2026-05-03 23:22 | 19.73572 | -91.39243 | 38001 ft | 453 kts | 263° |
| 2026-05-03 23:23 | 19.72842 | -91.45873 | 38001 ft | 452 kts | 263° |
| 2026-05-03 23:23 | 19.72109 | -91.52505 | 38001 ft | 452 kts | 263° |
| 2026-05-03 23:24 | 19.71376 | -91.59121 | 38001 ft | 451 kts | 263° |
| 2026-05-03 23:24 | 19.70640 | -91.65733 | 38001 ft | 451 kts | 263° |
| 2026-05-03 23:25 | 19.69902 | -91.72347 | 38001 ft | 451 kts | 263° |
| 2026-05-03 23:25 | 19.69163 | -91.78952 | 38001 ft | 451 kts | 263° |
| 2026-05-03 23:26 | 19.68416 | -91.85548 | 38001 ft | 450 kts | 261° |
| 2026-05-03 23:26 | 19.66578 | -91.91870 | 38000 ft | 450 kts | 243° |
| 2026-05-03 23:27 | 19.63372 | -91.97572 | 38000 ft | 450 kts | 238° |
| 2026-05-03 23:27 | 19.60069 | -92.03162 | 38001 ft | 450 kts | 238° |
| 2026-05-03 23:28 | 19.56777 | -92.08806 | 38001 ft | 451 kts | 238° |
| 2026-05-03 23:28 | 19.53500 | -92.14478 | 38002 ft | 451 kts | 239° |
| 2026-05-03 23:29 | 19.50225 | -92.20161 | 38002 ft | 451 kts | 239° |
| 2026-05-03 23:29 | 19.46948 | -92.25840 | 38002 ft | 452 kts | 238° |
| 2026-05-03 23:30 | 19.43667 | -92.31517 | 38002 ft | 452 kts | 238° |
| 2026-05-03 23:30 | 19.40381 | -92.37198 | 38002 ft | 452 kts | 238° |
| 2026-05-03 23:31 | 19.37093 | -92.42876 | 38001 ft | 452 kts | 238° |
| 2026-05-03 23:31 | 19.33801 | -92.48557 | 38001 ft | 452 kts | 238° |
| 2026-05-03 23:32 | 19.30509 | -92.54234 | 38001 ft | 452 kts | 238° |
| 2026-05-03 23:32 | 19.27214 | -92.59910 | 38001 ft | 452 kts | 238° |
| 2026-05-03 23:33 | 19.23922 | -92.65576 | 38001 ft | 452 kts | 238° |
| 2026-05-03 23:33 | 19.20624 | -92.71246 | 38001 ft | 452 kts | 238° |
| 2026-05-03 23:34 | 19.17332 | -92.76905 | 38001 ft | 452 kts | 238° |
| 2026-05-03 23:34 | 19.14038 | -92.82564 | 38001 ft | 452 kts | 238° |
| 2026-05-03 23:35 | 19.10747 | -92.88216 | 38001 ft | 451 kts | 238° |
| 2026-05-03 23:35 | 19.07454 | -92.93866 | 38001 ft | 451 kts | 238° |
| 2026-05-03 23:36 | 19.04160 | -92.99510 | 38001 ft | 451 kts | 238° |
| 2026-05-03 23:36 | 19.00863 | -93.05156 | 38001 ft | 451 kts | 238° |
| 2026-05-03 23:37 | 18.97588 | -93.10759 | 38001 ft | 451 kts | 238° |
| 2026-05-03 23:37 | 18.94272 | -93.16427 | 38001 ft | 451 kts | 238° |
| 2026-05-03 23:38 | 18.90992 | -93.22030 | 38001 ft | 451 kts | 238° |
| 2026-05-03 23:38 | 18.87693 | -93.27660 | 38001 ft | 451 kts | 238° |
| 2026-05-03 23:39 | 18.84389 | -93.33293 | 38001 ft | 451 kts | 238° |
| 2026-05-03 23:39 | 18.81081 | -93.38923 | 38002 ft | 451 kts | 238° |
| 2026-05-03 23:40 | 18.77771 | -93.44549 | 38002 ft | 451 kts | 238° |
| 2026-05-03 23:40 | 18.74455 | -93.50182 | 38002 ft | 451 kts | 238° |
| 2026-05-03 23:41 | 18.71145 | -93.55801 | 38002 ft | 452 kts | 238° |
| 2026-05-03 23:41 | 18.67828 | -93.61427 | 38002 ft | 452 kts | 238° |
| 2026-05-03 23:42 | 18.64511 | -93.67049 | 38002 ft | 452 kts | 238° |
| 2026-05-03 23:42 | 18.61186 | -93.72678 | 38002 ft | 452 kts | 238° |
| 2026-05-03 23:43 | 18.57865 | -93.78296 | 38002 ft | 452 kts | 238° |
| 2026-05-03 23:43 | 18.54565 | -93.83875 | 38002 ft | 452 kts | 238° |
| 2026-05-03 23:44 | 18.51237 | -93.89496 | 38001 ft | 452 kts | 238° |
| 2026-05-03 23:44 | 18.47912 | -93.95106 | 38001 ft | 452 kts | 238° |
| 2026-05-03 23:45 | 18.44584 | -94.00718 | 38001 ft | 452 kts | 238° |
| 2026-05-03 23:45 | 18.41253 | -94.06327 | 38001 ft | 452 kts | 238° |
| 2026-05-03 23:46 | 18.37918 | -94.11933 | 38001 ft | 451 kts | 238° |
| 2026-05-03 23:46 | 18.34586 | -94.17529 | 38001 ft | 451 kts | 238° |
| 2026-05-03 23:47 | 18.31247 | -94.23134 | 38001 ft | 451 kts | 238° |
| 2026-05-03 23:47 | 18.27913 | -94.28726 | 38001 ft | 451 kts | 238° |
| 2026-05-03 23:48 | 18.24577 | -94.34319 | 38001 ft | 451 kts | 238° |
| 2026-05-03 23:48 | 18.21237 | -94.39912 | 38001 ft | 451 kts | 238° |
| 2026-05-03 23:49 | 18.17897 | -94.45501 | 38001 ft | 451 kts | 238° |
| 2026-05-03 23:49 | 18.14558 | -94.51085 | 38001 ft | 451 kts | 238° |
| 2026-05-03 23:50 | 18.11781 | -94.55724 | 38001 ft | 451 kts | 238° |
| 2026-05-03 23:50 | 18.08544 | -94.61377 | 38000 ft | 451 kts | 241° |
| 2026-05-03 23:51 | 18.05560 | -94.67184 | 38002 ft | 451 kts | 242° |
| 2026-05-03 23:51 | 18.02606 | -94.73000 | 38001 ft | 451 kts | 242° |
| 2026-05-03 23:52 | 17.99622 | -94.78802 | 38002 ft | 451 kts | 242° |
| 2026-05-03 23:52 | 17.96621 | -94.84590 | 38001 ft | 451 kts | 242° |
| 2026-05-03 23:53 | 17.93613 | -94.90376 | 38001 ft | 452 kts | 241° |
| 2026-05-03 23:53 | 17.90598 | -94.96173 | 38002 ft | 452 kts | 241° |
| 2026-05-03 23:54 | 17.87589 | -95.01954 | 38001 ft | 452 kts | 241° |
| 2026-05-03 23:54 | 17.84572 | -95.07745 | 38002 ft | 452 kts | 241° |
| 2026-05-03 23:55 | 17.81554 | -95.13533 | 38002 ft | 452 kts | 241° |
| 2026-05-03 23:55 | 17.78535 | -95.19319 | 38000 ft | 452 kts | 241° |
| 2026-05-03 23:56 | 17.75514 | -95.25101 | 38001 ft | 452 kts | 241° |
| 2026-05-03 23:56 | 17.72493 | -95.30879 | 38001 ft | 452 kts | 241° |
| 2026-05-03 23:57 | 17.69469 | -95.36660 | 38001 ft | 452 kts | 241° |
| 2026-05-03 23:57 | 17.66445 | -95.42434 | 38001 ft | 452 kts | 241° |
| 2026-05-03 23:58 | 17.63417 | -95.48212 | 38001 ft | 452 kts | 241° |
| 2026-05-03 23:58 | 17.60391 | -95.53980 | 38001 ft | 452 kts | 241° |
| 2026-05-03 23:59 | 17.57357 | -95.59749 | 38001 ft | 452 kts | 241° |
| 2026-05-03 23:59 | 17.54323 | -95.65507 | 38002 ft | 452 kts | 241° |
| 2026-05-04 00:00 | 17.51286 | -95.71266 | 38001 ft | 452 kts | 241° |
| 2026-05-04 00:00 | 17.48241 | -95.77038 | 38002 ft | 452 kts | 241° |
| 2026-05-04 00:01 | 17.45200 | -95.82797 | 37997 ft | 452 kts | 241° |
| 2026-05-04 00:01 | 17.42174 | -95.88525 | 37995 ft | 453 kts | 241° |
| 2026-05-04 00:02 | 17.39112 | -95.94315 | 37998 ft | 455 kts | 241° |
| 2026-05-04 00:02 | 17.36032 | -96.00134 | 38016 ft | 458 kts | 241° |
| 2026-05-04 00:03 | 17.32936 | -96.05980 | 38003 ft | 461 kts | 241° |
| 2026-05-04 00:03 | 17.29814 | -96.11870 | 38008 ft | 464 kts | 241° |
| 2026-05-04 00:04 | 17.26679 | -96.17800 | 38010 ft | 466 kts | 241° |
| 2026-05-04 00:04 | 17.23566 | -96.23692 | 37989 ft | 461 kts | 241° |
| 2026-05-04 00:05 | 17.20468 | -96.29549 | 37997 ft | 461 kts | 241° |
| 2026-05-04 00:05 | 17.17351 | -96.35436 | 37992 ft | 464 kts | 241° |
| 2026-05-04 00:06 | 17.14227 | -96.41313 | 38011 ft | 467 kts | 241° |
| 2026-05-04 00:06 | 17.11043 | -96.47263 | 38005 ft | 471 kts | 241° |
| 2026-05-04 00:07 | 17.07839 | -96.53244 | 38009 ft | 473 kts | 241° |
| 2026-05-04 00:07 | 17.04643 | -96.59215 | 37989 ft | 466 kts | 241° |
| 2026-05-04 00:08 | 17.01537 | -96.65012 | 37993 ft | 458 kts | 241° |
| 2026-05-04 00:08 | 16.98184 | -96.70717 | 37987 ft | 460 kts | 228° |
| 2026-05-04 00:09 | 16.95852 | -96.72922 | 38011 ft | 459 kts | 215° |
| 2026-05-04 00:09 | 16.93070 | -96.74552 | 37997 ft | 460 kts | 201° |
| 2026-05-04 00:09 | 16.86950 | -96.76531 | 38003 ft | 461 kts | 196° |
| 2026-05-04 00:10 | 16.80786 | -96.78397 | 37999 ft | 462 kts | 197° |
| 2026-05-04 00:10 | 16.74614 | -96.80334 | 38001 ft | 463 kts | 197° |
| 2026-05-04 00:11 | 16.68446 | -96.82308 | 38002 ft | 464 kts | 197° |
| 2026-05-04 00:11 | 16.62272 | -96.84289 | 38001 ft | 465 kts | 197° |
| 2026-05-04 00:12 | 16.56084 | -96.86270 | 37997 ft | 465 kts | 197° |
| 2026-05-04 00:12 | 16.49877 | -96.88254 | 37991 ft | 466 kts | 197° |
| 2026-05-04 00:13 | 16.43678 | -96.90234 | 38011 ft | 467 kts | 197° |
| 2026-05-04 00:13 | 16.37469 | -96.92221 | 37994 ft | 467 kts | 197° |
| 2026-05-04 00:14 | 16.31263 | -96.94211 | 38009 ft | 465 kts | 197° |
| 2026-05-04 00:14 | 16.25082 | -96.96191 | 37992 ft | 465 kts | 197° |
| 2026-05-04 00:15 | 16.18903 | -96.98169 | 38004 ft | 464 kts | 197° |
| 2026-05-04 00:15 | 16.12741 | -97.00139 | 38006 ft | 463 kts | 197° |
| 2026-05-04 00:16 | 16.06597 | -97.02103 | 38004 ft | 461 kts | 197° |
| 2026-05-04 00:16 | 16.00481 | -97.04057 | 37995 ft | 458 kts | 197° |
| 2026-05-04 00:17 | 15.94729 | -97.06707 | 38010 ft | 453 kts | 220° |
| 2026-05-04 00:17 | 15.92613 | -97.09111 | 37995 ft | 451 kts | 237° |
| 2026-05-04 00:17 | 15.91247 | -97.12022 | 38008 ft | 448 kts | 253° |
| 2026-05-04 00:18 | 15.90686 | -97.15188 | 38013 ft | 447 kts | 268° |
| 2026-05-04 00:18 | 15.90899 | -97.18394 | 37991 ft | 446 kts | 283° |
| 2026-05-04 00:18 | 15.92827 | -97.24498 | 38002 ft | 445 kts | 290° |
| 2026-05-04 00:19 | 15.94964 | -97.30537 | 37998 ft | 446 kts | 290° |
| 2026-05-04 00:19 | 15.97074 | -97.36607 | 38003 ft | 447 kts | 289° |
| 2026-05-04 00:20 | 15.99149 | -97.42719 | 38005 ft | 450 kts | 289° |
| 2026-05-04 00:20 | 16.01216 | -97.48866 | 38002 ft | 452 kts | 289° |
| 2026-05-04 00:21 | 16.03276 | -97.55008 | 38000 ft | 453 kts | 289° |
| 2026-05-04 00:21 | 16.05352 | -97.61202 | 38002 ft | 455 kts | 289° |
| 2026-05-04 00:22 | 16.07402 | -97.67318 | 37980 ft | 434 kts | 289° |
| 2026-05-04 00:22 | 16.08377 | -97.70232 | 37978 ft | 420 kts | 289° |
| 2026-05-04 00:22 | 16.09322 | -97.73056 | 37984 ft | 406 kts | 289° |
| 2026-05-04 00:23 | 16.10236 | -97.75787 | 37968 ft | 394 kts | 289° |
| 2026-05-04 00:23 | 16.11121 | -97.78435 | 37885 ft | 384 kts | 289° |
| 2026-05-04 00:23 | 16.11993 | -97.81041 | 37541 ft | 381 kts | 289° |
| 2026-05-04 00:23 | 16.12863 | -97.83648 | 37094 ft | 381 kts | 289° |
| 2026-05-04 00:24 | 16.13742 | -97.86281 | 36276 ft | 392 kts | 289° |
| 2026-05-04 00:24 | 16.14653 | -97.89010 | 35210 ft | 408 kts | 289° |
| 2026-05-04 00:24 | 16.15600 | -97.91849 | 34056 ft | 424 kts | 289° |
| 2026-05-04 00:24 | 16.16584 | -97.94801 | 32894 ft | 439 kts | 289° |
| 2026-05-04 00:25 | 16.17597 | -97.97840 | 31824 ft | 449 kts | 289° |
| 2026-05-04 00:25 | 16.18624 | -98.00926 | 31081 ft | 450 kts | 289° |
| 2026-05-04 00:25 | 16.19644 | -98.03988 | 30575 ft | 445 kts | 289° |
| 2026-05-04 00:25 | 16.20647 | -98.07002 | 30122 ft | 439 kts | 289° |
| 2026-05-04 00:26 | 16.21639 | -98.09985 | 29593 ft | 434 kts | 289° |
| 2026-05-04 00:26 | 16.22622 | -98.12944 | 29019 ft | 431 kts | 289° |
| 2026-05-04 00:26 | 16.23597 | -98.15879 | 28420 ft | 428 kts | 289° |
| 2026-05-04 00:26 | 16.24567 | -98.18798 | 27873 ft | 424 kts | 289° |
| 2026-05-04 00:27 | 16.25524 | -98.21684 | 27338 ft | 420 kts | 289° |
| 2026-05-04 00:27 | 16.26474 | -98.24548 | 26799 ft | 416 kts | 289° |
| 2026-05-04 00:27 | 16.27413 | -98.27380 | 26272 ft | 410 kts | 289° |
| 2026-05-04 00:27 | 16.28326 | -98.30136 | 26079 ft | 394 kts | 289° |
| 2026-05-04 00:28 | 16.29201 | -98.32777 | 25999 ft | 377 kts | 289° |
| 2026-05-04 00:28 | 16.30033 | -98.35290 | 25982 ft | 359 kts | 289° |
| 2026-05-04 00:28 | 16.30830 | -98.37699 | 25841 ft | 346 kts | 289° |
| 2026-05-04 00:28 | 16.31606 | -98.40045 | 25502 ft | 341 kts | 289° |
| 2026-05-04 00:29 | 16.32377 | -98.42376 | 25000 ft | 340 kts | 289° |
| 2026-05-04 00:29 | 16.33148 | -98.44710 | 24363 ft | 343 kts | 289° |
| 2026-05-04 00:29 | 16.33942 | -98.47113 | 23207 ft | 361 kts | 289° |
| 2026-05-04 00:29 | 16.34777 | -98.49642 | 22010 ft | 377 kts | 289° |
| 2026-05-04 00:30 | 16.35639 | -98.52254 | 21066 ft | 383 kts | 289° |
| 2026-05-04 00:30 | 16.36503 | -98.54873 | 20428 ft | 380 kts | 289° |
| 2026-05-04 00:30 | 16.37347 | -98.57431 | 20177 ft | 366 kts | 289° |
| 2026-05-04 00:30 | 16.38155 | -98.59884 | 20045 ft | 350 kts | 289° |
| 2026-05-04 00:31 | 16.38925 | -98.62220 | 19916 ft | 335 kts | 289° |
| 2026-05-04 00:31 | 16.39673 | -98.64493 | 19559 ft | 329 kts | 289° |
| 2026-05-04 00:31 | 16.40413 | -98.66741 | 19036 ft | 328 kts | 289° |
| 2026-05-04 00:31 | 16.41163 | -98.69019 | 18086 ft | 340 kts | 289° |
| 2026-05-04 00:32 | 16.41946 | -98.71400 | 17023 ft | 352 kts | 289° |
| 2026-05-04 00:32 | 16.42743 | -98.73823 | 16131 ft | 354 kts | 289° |
| 2026-05-04 00:32 | 16.43525 | -98.76202 | 15721 ft | 340 kts | 289° |
| 2026-05-04 00:32 | 16.44276 | -98.78490 | 15322 ft | 328 kts | 289° |
| 2026-05-04 00:33 | 16.45003 | -98.80702 | 14888 ft | 318 kts | 289° |
| 2026-05-04 00:33 | 16.46396 | -98.84949 | 14022 ft | 303 kts | 289° |
| 2026-05-04 00:33 | 16.47071 | -98.87007 | 13587 ft | 297 kts | 289° |
| 2026-05-04 00:34 | 16.47736 | -98.89034 | 13149 ft | 295 kts | 289° |
| 2026-05-04 00:34 | 16.48396 | -98.91046 | 12721 ft | 293 kts | 289° |
| 2026-05-04 00:34 | 16.49044 | -98.93026 | 12305 ft | 292 kts | 289° |
| 2026-05-04 00:34 | 16.49701 | -98.95021 | 11887 ft | 290 kts | 289° |
| 2026-05-04 00:35 | 16.50353 | -98.96996 | 11482 ft | 288 kts | 289° |
| 2026-05-04 00:35 | 16.51002 | -98.98964 | 11068 ft | 286 kts | 289° |
| 2026-05-04 00:35 | 16.51648 | -99.00921 | 10649 ft | 285 kts | 289° |
| 2026-05-04 00:35 | 16.52289 | -99.02864 | 10253 ft | 283 kts | 289° |
| 2026-05-04 00:36 | 16.52926 | -99.04799 | 9847 ft | 281 kts | 289° |
| 2026-05-04 00:36 | 16.53558 | -99.06716 | 9452 ft | 279 kts | 289° |
| 2026-05-04 00:36 | 16.54188 | -99.08628 | 9055 ft | 278 kts | 289° |
| 2026-05-04 00:36 | 16.54810 | -99.10520 | 8657 ft | 276 kts | 289° |
| 2026-05-04 00:37 | 16.55431 | -99.12405 | 8267 ft | 274 kts | 289° |
| 2026-05-04 00:37 | 16.56047 | -99.14279 | 7872 ft | 272 kts | 289° |
| 2026-05-04 00:37 | 16.56453 | -99.15513 | 7615 ft | 271 kts | 289° |
| 2026-05-04 00:37 | 16.57062 | -99.17367 | 7229 ft | 270 kts | 289° |
| 2026-05-04 00:38 | 16.57668 | -99.19210 | 6846 ft | 268 kts | 289° |
| 2026-05-04 00:38 | 16.58269 | -99.21040 | 6449 ft | 266 kts | 289° |
| 2026-05-04 00:38 | 16.58867 | -99.22860 | 6077 ft | 265 kts | 289° |
| 2026-05-04 00:38 | 16.59460 | -99.24668 | 5703 ft | 263 kts | 289° |
| 2026-05-04 00:39 | 16.60050 | -99.26465 | 5321 ft | 261 kts | 289° |
| 2026-05-04 00:39 | 16.60637 | -99.28255 | 4950 ft | 260 kts | 289° |
| 2026-05-04 00:39 | 16.61218 | -99.30029 | 4579 ft | 258 kts | 289° |
| 2026-05-04 00:39 | 16.61796 | -99.31795 | 4219 ft | 256 kts | 289° |
| 2026-05-04 00:40 | 16.62358 | -99.33513 | 4136 ft | 243 kts | 289° |
| 2026-05-04 00:40 | 16.62888 | -99.35132 | 4103 ft | 228 kts | 289° |
| 2026-05-04 00:40 | 16.63059 | -99.35656 | 4102 ft | 223 kts | 289° |
| 2026-05-04 00:41 | 16.63191 | -99.36059 | 4099 ft | 219 kts | 289° |
| 2026-05-04 00:41 | 16.63425 | -99.36774 | 4101 ft | 216 kts | 289° |
| 2026-05-04 00:41 | 16.63906 | -99.38247 | 4112 ft | 213 kts | 289° |
| 2026-05-04 00:42 | 16.64379 | -99.39694 | 4113 ft | 210 kts | 288° |
| 2026-05-04 00:42 | 16.64850 | -99.41138 | 4124 ft | 210 kts | 288° |
| 2026-05-04 00:42 | 16.65320 | -99.42577 | 4126 ft | 210 kts | 288° |
| 2026-05-04 00:42 | 16.65789 | -99.44016 | 4128 ft | 210 kts | 288° |
| 2026-05-04 00:43 | 16.66258 | -99.45449 | 4150 ft | 207 kts | 288° |
| 2026-05-04 00:43 | 16.66715 | -99.46851 | 4122 ft | 202 kts | 288° |
| 2026-05-04 00:43 | 16.67165 | -99.48228 | 4109 ft | 198 kts | 288° |
| 2026-05-04 00:43 | 16.67603 | -99.49571 | 4091 ft | 196 kts | 289° |
| 2026-05-04 00:44 | 16.68053 | -99.50943 | 3863 ft | 204 kts | 289° |
| 2026-05-04 00:44 | 16.68520 | -99.52355 | 3688 ft | 207 kts | 289° |
| 2026-05-04 00:44 | 16.68991 | -99.53756 | 3674 ft | 202 kts | 289° |
| 2026-05-04 00:44 | 16.69448 | -99.55100 | 3631 ft | 200 kts | 288° |
| 2026-05-04 00:45 | 16.69875 | -99.56489 | 3462 ft | 203 kts | 287° |
| 2026-05-04 00:45 | 16.70305 | -99.57892 | 3311 ft | 204 kts | 288° |
| 2026-05-04 00:45 | 16.70758 | -99.59304 | 3080 ft | 202 kts | 289° |
| 2026-05-04 00:45 | 16.71213 | -99.60675 | 2761 ft | 196 kts | 289° |
| 2026-05-04 00:46 | 16.71629 | -99.61982 | 2579 ft | 178 kts | 287° |
| 2026-05-04 00:46 | 16.71986 | -99.63158 | 2373 ft | 167 kts | 287° |
| 2026-05-04 00:46 | 16.72340 | -99.64311 | 1982 ft | 166 kts | 288° |
| 2026-05-04 00:46 | 16.72682 | -99.65437 | 1606 ft | 162 kts | 286° |
| 2026-05-04 00:47 | 16.72989 | -99.66551 | 1204 ft | 161 kts | 285° |
| 2026-05-04 00:47 | 16.73294 | -99.67647 | 937 ft | 152 kts | 286° |
| 2026-05-04 00:47 | 16.73587 | -99.68651 | 802 ft | 138 kts | 288° |
| 2026-05-04 00:47 | 16.73890 | -99.69589 | 665 ft | 136 kts | 287° |
| 2026-05-04 00:48 | 16.74161 | -99.70515 | 556 ft | 134 kts | 287° |
| 2026-05-04 00:48 | 16.74453 | -99.71430 | 385 ft | 136 kts | 290° |
| 2026-05-04 00:48 | 16.74763 | -99.72371 | 245 ft | 138 kts | 287° |
| 2026-05-04 00:48 | 16.75061 | -99.73340 | 66 ft | 144 kts | 289° |
| 2026-05-04 00:49 | 16.75332 | -99.74173 | 19 ft | 133 kts | 288° |
| 2026-05-04 00:49 | 16.75554 | -99.74877 | 17 ft | 72 kts | 288° |
| 2026-05-04 00:49 | 16.75662 | -99.75230 | 18 ft | 27 kts | 288° |
| 2026-05-04 00:49 | 16.75718 | -99.75408 | 20 ft | 25 kts | 289° |
| 2026-05-04 00:50 | 16.75769 | -99.75562 | 20 ft | 13 kts | 289° |
| 2026-05-04 00:50 | 16.75832 | -99.75589 | 21 ft | 12 kts | 37° |
| 2026-05-04 00:50 | 16.75873 | -99.75516 | 18 ft | 9 kts | 66° |
| 2026-05-04 00:50 | 16.75898 | -99.75455 | 17 ft | 10 kts | 66° |
| 2026-05-04 00:51 | 16.75949 | -99.75415 | 17 ft | 10 kts | 15° |
| 2026-05-04 00:51 | 16.76000 | -99.75448 | 17 ft | 10 kts | 295° |
| 2026-05-04 00:51 | 16.76021 | -99.75513 | 18 ft | 9 kts | 288° |
| 2026-05-04 00:51 | 16.76041 | -99.75577 | 17 ft | 9 kts | 288° |
| 2026-05-04 00:52 | 16.76062 | -99.75637 | 16 ft | 9 kts | 308° |
| 2026-05-04 00:52 | 16.76121 | -99.75635 | 16 ft | 9 kts | 18° |
| 2026-05-04 00:52 | 16.76164 | -99.75620 | 16 ft | 0 kts | 18° |